createdAt,value
2022-12-31T00:00:11.949Z,16.12
2022-12-31T00:02:40.900Z,16.04
2022-12-31T00:05:08.951Z,16.10
2022-12-31T00:10:03.409Z,15.88
2022-12-31T00:12:32.483Z,16.07
2022-12-31T00:15:00.157Z,15.84
2022-12-31T00:17:27.809Z,15.71
2022-12-31T00:19:55.485Z,15.89
2022-12-31T00:22:23.220Z,15.86
2022-12-31T00:24:50.900Z,15.39
2022-12-31T00:27:18.562Z,15.70
2022-12-31T00:30:34.878Z,15.76
2022-12-31T00:33:02.563Z,15.66
2022-12-31T00:35:30.754Z,15.61
2022-12-31T00:37:58.429Z,15.51
2022-12-31T00:40:26.096Z,15.27
2022-12-31T00:42:53.707Z,15.27
2022-12-31T00:45:21.411Z,15.50
2022-12-31T00:47:50.409Z,15.38
2022-12-31T00:50:18.238Z,15.36
2022-12-31T00:52:45.929Z,15.17
2022-12-31T00:55:13.556Z,15.20
2022-12-31T00:57:41.174Z,15.66
2022-12-31T01:00:09.518Z,15.60
2022-12-31T01:02:37.299Z,15.58
2022-12-31T01:05:08.242Z,15.46
2022-12-31T01:07:35.862Z,15.32
2022-12-31T01:10:03.526Z,15.46
2022-12-31T01:12:31.192Z,15.57
2022-12-31T01:14:58.920Z,15.57
2022-12-31T01:17:26.555Z,15.52
2022-12-31T01:19:54.265Z,15.45
2022-12-31T01:22:23.330Z,15.40
2022-12-31T01:24:51.016Z,15.53
2022-12-31T01:27:18.651Z,15.57
2022-12-31T01:29:46.309Z,15.70
2022-12-31T01:32:13.968Z,15.70
2022-12-31T01:34:41.692Z,15.60
2022-12-31T01:37:09.322Z,15.72
2022-12-31T01:39:38.347Z,15.53
2022-12-31T01:42:06.225Z,15.63
2022-12-31T01:44:50.976Z,15.61
2022-12-31T01:47:19.516Z,15.82
2022-12-31T01:49:48.552Z,15.82
2022-12-31T01:52:16.944Z,15.89
2022-12-31T01:54:46.377Z,15.88
2022-12-31T01:57:14.029Z,16.03
2022-12-31T01:59:41.653Z,15.52
2022-12-31T02:02:09.369Z,16.08
2022-12-31T02:04:37.009Z,16.47
2022-12-31T02:07:05.537Z,15.57
2022-12-31T02:09:33.338Z,15.66
2022-12-31T02:12:02.319Z,15.85
2022-12-31T02:14:30.793Z,16.00
2022-12-31T02:17:00.253Z,16.19
2022-12-31T02:19:42.802Z,16.29
2022-12-31T02:22:10.705Z,16.10
2022-12-31T02:25:05.749Z,16.00
2022-12-31T02:27:38.764Z,16.40
2022-12-31T02:30:09.653Z,16.13
2022-12-31T02:32:43.714Z,16.37
2022-12-31T02:35:13.619Z,16.29
2022-12-31T02:37:41.760Z,16.46
2022-12-31T02:40:10.825Z,16.55
2022-12-31T02:42:38.498Z,16.62
2022-12-31T02:45:06.622Z,16.62
2022-12-31T02:47:39.815Z,16.60
2022-12-31T02:50:11.880Z,16.53
2022-12-31T02:52:40.893Z,16.68
2022-12-31T02:55:10.538Z,16.51
2022-12-31T02:57:40.291Z,16.77
2022-12-31T03:00:26.404Z,16.92
2022-12-31T03:02:55.599Z,16.55
2022-12-31T03:05:24.034Z,16.78
2022-12-31T03:07:51.914Z,16.62
2022-12-31T03:10:19.755Z,16.46
2022-12-31T03:12:46.861Z,16.37
2022-12-31T03:15:21.282Z,16.76
2022-12-31T03:17:52.912Z,16.55
2022-12-31T03:20:40.661Z,16.63
2022-12-31T03:23:09.237Z,16.62
2022-12-31T03:25:35.987Z,16.65
2022-12-31T03:28:05.089Z,16.59
2022-12-31T03:30:33.499Z,16.60
2022-12-31T03:33:01.341Z,16.45
2022-12-31T03:35:30.565Z,16.65
2022-12-31T03:37:58.561Z,16.48
2022-12-31T03:40:26.895Z,16.58
2022-12-31T03:42:54.658Z,16.49
2022-12-31T03:45:22.289Z,16.42
2022-12-31T03:47:49.945Z,16.55
2022-12-31T03:50:18.213Z,16.65
2022-12-31T03:52:47.315Z,16.49
2022-12-31T03:55:15.396Z,16.73
2022-12-31T03:57:43.201Z,16.83
2022-12-31T04:00:12.613Z,16.92
2022-12-31T04:02:40.372Z,16.55
2022-12-31T04:05:08.443Z,16.82
2022-12-31T04:07:36.328Z,16.72
2022-12-31T04:10:05.652Z,16.69
2022-12-31T04:12:33.301Z,16.70
2022-12-31T04:15:01.047Z,16.82
2022-12-31T04:17:28.649Z,16.82
2022-12-31T04:19:56.268Z,16.96
2022-12-31T04:22:23.971Z,16.87
2022-12-31T04:24:51.613Z,17.06
2022-12-31T04:27:20.609Z,17.08
2022-12-31T04:29:48.217Z,17.01
2022-12-31T04:32:15.821Z,17.14
2022-12-31T04:34:43.456Z,17.41
2022-12-31T04:37:11.225Z,17.36
2022-12-31T04:39:38.826Z,17.42
2022-12-31T04:42:06.578Z,17.57
2022-12-31T04:44:35.556Z,17.45
2022-12-31T04:47:03.199Z,17.25
2022-12-31T04:49:30.822Z,23.37
2022-12-31T04:51:58.425Z,20.43
2022-12-31T04:54:26.040Z,20.02
2022-12-31T04:56:54.003Z,19.55
2022-12-31T04:59:21.692Z,19.32
2022-12-31T05:01:50.762Z,19.18
2022-12-31T05:04:18.435Z,19.32
2022-12-31T05:06:46.124Z,19.02
2022-12-31T05:09:13.756Z,19.39
2022-12-31T05:11:41.800Z,18.54
2022-12-31T05:14:09.580Z,18.92
2022-12-31T05:16:37.241Z,19.42
2022-12-31T05:19:09.449Z,19.47
2022-12-31T05:21:37.094Z,19.32
2022-12-31T05:24:04.931Z,19.66
2022-12-31T05:26:32.541Z,19.45
2022-12-31T05:29:00.625Z,19.13
2022-12-31T05:31:28.422Z,17.95
2022-12-31T05:33:56.115Z,18.36
2022-12-31T05:36:25.200Z,17.70
2022-12-31T05:38:52.840Z,19.20
2022-12-31T05:41:20.442Z,19.81
2022-12-31T05:43:48.124Z,19.65
2022-12-31T05:46:16.286Z,19.70
2022-12-31T05:48:44.003Z,18.65
2022-12-31T05:51:11.588Z,19.23
2022-12-31T05:53:41.206Z,19.34
2022-12-31T05:56:08.826Z,18.94
2022-12-31T05:58:36.559Z,19.65
2022-12-31T06:01:04.216Z,19.96
2022-12-31T06:03:32.169Z,19.95
2022-12-31T06:05:59.880Z,19.88
2022-12-31T06:08:27.564Z,20.00
2022-12-31T06:10:56.590Z,20.05
2022-12-31T06:13:24.887Z,19.96
2022-12-31T06:15:52.644Z,20.00
2022-12-31T06:18:20.354Z,19.22
2022-12-31T06:20:48.394Z,19.39
2022-12-31T06:23:16.133Z,19.86
2022-12-31T06:25:43.719Z,19.21
2022-12-31T06:28:19.842Z,19.34
2022-12-31T06:30:48.214Z,19.31
2022-12-31T06:33:15.904Z,18.91
2022-12-31T06:35:43.566Z,18.63
2022-12-31T06:38:11.236Z,19.72
2022-12-31T06:40:38.926Z,19.64
2022-12-31T06:43:06.645Z,19.08
2022-12-31T06:45:35.750Z,19.44
2022-12-31T06:48:04.161Z,19.44
2022-12-31T06:50:31.877Z,19.20
2022-12-31T06:52:59.483Z,19.40
2022-12-31T06:55:27.665Z,19.46
2022-12-31T06:57:55.629Z,19.63
2022-12-31T07:00:24.081Z,19.41
2022-12-31T07:03:06.474Z,19.49
2022-12-31T07:05:37.480Z,19.50
2022-12-31T07:08:07.367Z,19.45
2022-12-31T07:10:38.544Z,19.56
2022-12-31T07:13:10.010Z,19.11
2022-12-31T07:15:50.151Z,19.08
2022-12-31T07:18:21.841Z,18.97
2022-12-31T07:20:50.019Z,19.14
2022-12-31T07:23:17.977Z,19.15
2022-12-31T07:25:48.477Z,19.11
2022-12-31T07:28:17.681Z,19.39
2022-12-31T07:30:46.729Z,19.23
2022-12-31T07:33:22.475Z,19.27
2022-12-31T07:35:52.641Z,19.26
2022-12-31T07:38:22.030Z,19.08
2022-12-31T07:40:57.604Z,19.52
2022-12-31T07:43:27.436Z,19.25
2022-12-31T07:45:56.625Z,19.18
2022-12-31T07:48:26.536Z,18.84
2022-12-31T07:50:55.464Z,18.68
2022-12-31T07:53:23.980Z,18.71
2022-12-31T07:55:53.470Z,18.99
2022-12-31T07:58:22.556Z,18.54
2022-12-31T08:00:50.315Z,19.41
2022-12-31T08:03:19.920Z,18.94
2022-12-31T08:05:51.034Z,18.53
2022-12-31T08:08:22.177Z,18.66
2022-12-31T08:10:52.341Z,18.96
2022-12-31T08:13:20.088Z,18.81
2022-12-31T08:15:48.008Z,18.69
2022-12-31T08:18:15.970Z,19.12
2022-12-31T08:20:45.356Z,19.00
2022-12-31T08:23:20.515Z,19.13
2022-12-31T08:25:53.721Z,19.30
2022-12-31T08:28:22.209Z,19.24
2022-12-31T08:30:51.485Z,19.29
2022-12-31T08:33:19.970Z,19.18
2022-12-31T08:35:50.740Z,19.04
2022-12-31T08:38:22.334Z,19.18
2022-12-31T08:40:51.342Z,20.24
2022-12-31T08:43:22.333Z,20.37
2022-12-31T08:45:50.449Z,19.63
2022-12-31T08:48:20.832Z,19.55
2022-12-31T08:50:48.779Z,20.02
2022-12-31T08:53:16.673Z,19.88
2022-12-31T08:55:45.746Z,19.46
2022-12-31T08:58:18.638Z,19.72
2022-12-31T09:00:46.859Z,19.79
2022-12-31T09:03:21.001Z,19.74
2022-12-31T09:05:54.217Z,19.79
2022-12-31T09:08:24.348Z,19.79
2022-12-31T09:10:54.888Z,19.78
2022-12-31T09:13:23.556Z,19.83
2022-12-31T09:15:53.467Z,19.77
2022-12-31T09:18:21.560Z,19.63
2022-12-31T09:20:49.368Z,19.73
2022-12-31T09:23:17.282Z,19.55
2022-12-31T09:25:46.527Z,19.64
2022-12-31T09:28:17.436Z,19.74
2022-12-31T09:30:48.069Z,19.17
2022-12-31T09:33:18.139Z,19.23
2022-12-31T09:35:48.565Z,19.32
2022-12-31T09:38:18.118Z,19.32
2022-12-31T09:40:54.894Z,19.76
2022-12-31T09:43:30.049Z,19.64
2022-12-31T09:46:15.754Z,19.58
2022-12-31T09:49:07.645Z,19.68
2022-12-31T09:51:36.717Z,19.27
2022-12-31T09:54:11.273Z,19.37
2022-12-31T09:56:40.587Z,19.65
2022-12-31T09:59:11.833Z,19.52
2022-12-31T10:01:44.127Z,19.63
2022-12-31T10:04:26.892Z,19.41
2022-12-31T10:06:58.528Z,19.54
2022-12-31T10:09:29.469Z,19.41
2022-12-31T10:12:00.640Z,19.91
2022-12-31T10:14:42.371Z,19.45
2022-12-31T10:17:15.687Z,19.40
2022-12-31T10:19:48.588Z,19.41
2022-12-31T10:22:21.370Z,19.89
2022-12-31T10:24:58.798Z,19.64
2022-12-31T10:27:39.591Z,19.91
2022-12-31T10:30:13.371Z,20.04
2022-12-31T10:32:43.486Z,20.01
2022-12-31T10:35:14.668Z,20.04
2022-12-31T10:37:43.456Z,19.83
2022-12-31T10:40:14.988Z,19.80
2022-12-31T10:43:05.802Z,20.09
2022-12-31T10:45:52.393Z,20.30
2022-12-31T10:48:41.232Z,20.16
2022-12-31T10:51:15.398Z,20.31
2022-12-31T10:53:47.866Z,19.87
2022-12-31T10:56:48.940Z,20.80
2022-12-31T10:59:30.715Z,19.42
2022-12-31T11:02:00.262Z,19.32
2022-12-31T11:04:42.948Z,19.62
2022-12-31T11:07:20.651Z,20.18
2022-12-31T11:10:06.048Z,20.15
2022-12-31T11:12:54.878Z,20.11
2022-12-31T11:15:30.396Z,20.14
2022-12-31T11:18:00.414Z,19.95
2022-12-31T11:20:35.363Z,20.22
2022-12-31T11:23:08.905Z,20.50
2022-12-31T11:25:40.508Z,20.84
2022-12-31T11:28:32.083Z,20.35
2022-12-31T11:31:04.272Z,20.67
2022-12-31T11:33:34.970Z,20.75
2022-12-31T11:36:08.585Z,20.53
2022-12-31T11:38:39.598Z,20.47
2022-12-31T11:41:07.746Z,20.07
2022-12-31T11:43:37.253Z,19.89
2022-12-31T11:46:28.791Z,20.11
2022-12-31T11:48:59.756Z,19.46
2022-12-31T11:51:34.285Z,19.20
2022-12-31T11:54:19.701Z,19.49
2022-12-31T11:56:47.824Z,19.63
2022-12-31T11:59:19.289Z,19.22
2022-12-31T12:01:53.090Z,20.13
2022-12-31T12:04:20.795Z,20.07
2022-12-31T12:06:50.747Z,20.20
2022-12-31T12:09:28.079Z,19.76
2022-12-31T12:11:59.070Z,19.75
2022-12-31T12:14:31.296Z,19.54
2022-12-31T12:17:04.342Z,19.78
2022-12-31T12:19:33.841Z,19.68
2022-12-31T12:22:09.976Z,19.61
2022-12-31T12:24:39.116Z,19.59
2022-12-31T12:27:06.782Z,19.49
2022-12-31T12:29:35.237Z,19.63
2022-12-31T12:32:04.113Z,19.33
2022-12-31T12:34:32.365Z,18.30
2022-12-31T12:37:00.089Z,18.19
2022-12-31T12:39:28.878Z,18.47
2022-12-31T12:42:09.027Z,18.76
2022-12-31T12:44:36.955Z,18.45
2022-12-31T12:47:05.133Z,18.43
2022-12-31T12:49:33.296Z,17.79
2022-12-31T12:52:07.900Z,17.50
2022-12-31T12:54:38.934Z,17.51
2022-12-31T12:57:09.255Z,17.53
2022-12-31T12:59:41.150Z,17.45
2022-12-31T13:02:15.039Z,17.85
2022-12-31T13:04:45.534Z,17.53
2022-12-31T13:07:17.812Z,17.16
2022-12-31T13:09:49.196Z,17.63
2022-12-31T13:12:20.594Z,17.99
2022-12-31T13:14:49.843Z,18.26
2022-12-31T13:17:25.848Z,18.12
2022-12-31T13:19:54.187Z,18.10
2022-12-31T13:22:24.454Z,18.63
2022-12-31T13:24:55.038Z,18.39
2022-12-31T13:27:25.144Z,18.26
2022-12-31T13:29:52.966Z,18.82
2022-12-31T13:32:21.343Z,18.20
2022-12-31T13:34:49.551Z,18.60
2022-12-31T13:37:19.831Z,18.28
2022-12-31T13:39:47.545Z,18.17
2022-12-31T13:42:15.997Z,17.81
2022-12-31T13:44:45.749Z,17.74
2022-12-31T13:47:14.434Z,17.54
2022-12-31T13:49:43.384Z,17.54
2022-12-31T13:52:14.934Z,17.75
2022-12-31T13:54:43.778Z,18.04
2022-12-31T13:57:12.921Z,17.85
2022-12-31T13:59:41.236Z,18.04
2022-12-31T14:02:14.460Z,17.99
2022-12-31T14:04:43.255Z,18.20
2022-12-31T14:07:11.245Z,17.67
2022-12-31T14:09:39.066Z,18.24
2022-12-31T14:12:12.535Z,18.78
2022-12-31T14:14:42.339Z,18.32
2022-12-31T14:17:13.919Z,18.48
2022-12-31T14:19:45.556Z,18.58
2022-12-31T14:22:14.504Z,18.61
2022-12-31T14:24:44.258Z,18.63
2022-12-31T14:27:12.394Z,18.25
2022-12-31T14:29:41.158Z,18.13
2022-12-31T14:32:14.973Z,18.42
2022-12-31T14:34:45.397Z,18.15
2022-12-31T14:37:14.145Z,18.72
2022-12-31T14:39:45.280Z,17.75
2022-12-31T14:42:19.214Z,18.16
2022-12-31T14:44:50.397Z,17.71
2022-12-31T14:47:22.938Z,17.61
2022-12-31T14:49:51.890Z,17.56
2022-12-31T14:52:25.067Z,18.19
2022-12-31T14:54:59.626Z,17.58
2022-12-31T14:57:28.389Z,17.63
2022-12-31T14:59:56.859Z,17.62
2022-12-31T15:02:28.381Z,17.73
2022-12-31T15:05:04.432Z,17.62
2022-12-31T15:07:34.286Z,17.45
2022-12-31T15:10:05.101Z,17.55
2022-12-31T15:12:40.241Z,18.13
2022-12-31T15:15:12.865Z,18.12
2022-12-31T15:17:46.535Z,17.79
2022-12-31T15:20:26.046Z,18.10
2022-12-31T15:22:53.835Z,18.03
2022-12-31T15:25:22.681Z,19.47
2022-12-31T15:29:33.749Z,18.31
2022-12-31T15:32:02.565Z,17.14
2022-12-31T15:34:30.984Z,17.29
2022-12-31T15:36:59.630Z,18.30
2022-12-31T15:39:28.757Z,17.21
2022-12-31T15:44:49.299Z,17.23
2022-12-31T15:47:19.018Z,18.10
2022-12-31T15:49:46.963Z,17.56
2022-12-31T15:52:15.002Z,18.24
2022-12-31T15:54:43.611Z,17.42
2022-12-31T15:57:13.567Z,18.66
2022-12-31T15:59:41.163Z,18.48
2022-12-31T16:02:13.123Z,18.77
2022-12-31T16:04:42.611Z,19.25
2022-12-31T16:07:10.169Z,18.24
2022-12-31T16:09:37.763Z,18.73
2022-12-31T16:12:09.969Z,18.12
2022-12-31T16:14:37.773Z,18.95
2022-12-31T16:17:05.574Z,17.85
2022-12-31T16:19:35.555Z,18.39
2022-12-31T16:22:04.301Z,18.82
2022-12-31T16:24:32.404Z,17.73
2022-12-31T16:27:00.999Z,17.92
2022-12-31T16:29:28.568Z,18.86
2022-12-31T16:31:56.158Z,19.23
2022-12-31T16:34:24.227Z,18.86
2022-12-31T16:37:04.150Z,17.79
2022-12-31T16:39:32.605Z,18.50
2022-12-31T16:42:17.881Z,18.70
2022-12-31T16:44:45.465Z,18.44
2022-12-31T16:47:16.390Z,18.46
2022-12-31T16:49:43.966Z,18.42
2022-12-31T16:52:18.972Z,18.55
2022-12-31T16:54:47.503Z,18.37
2022-12-31T16:57:17.639Z,18.19
2022-12-31T16:59:45.529Z,18.23
2022-12-31T17:02:14.350Z,18.52
2022-12-31T17:04:48.086Z,18.61
2022-12-31T17:07:27.742Z,17.02
2022-12-31T17:10:05.151Z,17.05
2022-12-31T17:12:52.727Z,16.88
2022-12-31T17:15:23.093Z,18.44
2022-12-31T17:17:51.440Z,18.33
2022-12-31T17:20:21.202Z,18.35
2022-12-31T17:22:50.188Z,18.30
2022-12-31T17:25:21.785Z,18.17
2022-12-31T17:27:53.241Z,18.45
2022-12-31T17:30:22.202Z,18.61
2022-12-31T17:32:51.722Z,19.05
2022-12-31T17:35:27.983Z,18.16
2022-12-31T17:37:57.050Z,16.98
2022-12-31T17:40:53.003Z,17.00
2022-12-31T17:43:21.308Z,17.43
2022-12-31T17:45:48.946Z,17.58
2022-12-31T17:48:17.063Z,18.33
2022-12-31T17:50:47.538Z,18.01
2022-12-31T17:53:16.726Z,18.22
2022-12-31T17:55:45.368Z,17.60
2022-12-31T17:58:15.435Z,17.37
2022-12-31T18:00:43.093Z,17.39
2022-12-31T18:03:10.793Z,17.32
2022-12-31T18:05:38.479Z,17.01
2022-12-31T18:08:06.220Z,17.26
2022-12-31T18:10:36.259Z,18.53
2022-12-31T18:13:04.781Z,18.73
2022-12-31T18:15:32.392Z,18.00
2022-12-31T18:17:59.966Z,16.94
2022-12-31T18:20:27.602Z,17.15
2022-12-31T18:22:55.753Z,17.20
2022-12-31T18:25:23.998Z,17.20
2022-12-31T18:27:53.005Z,18.26
2022-12-31T18:30:20.601Z,18.37
2022-12-31T18:32:48.199Z,17.38
2022-12-31T18:35:33.263Z,16.98
2022-12-31T18:38:03.888Z,18.20
2022-12-31T18:40:32.566Z,17.10
2022-12-31T18:43:05.179Z,17.92
2022-12-31T18:45:32.966Z,18.22
2022-12-31T18:48:00.570Z,17.70
2022-12-31T18:50:28.223Z,17.09
2022-12-31T18:52:55.741Z,16.95
2022-12-31T18:55:24.717Z,17.48
2022-12-31T18:57:52.726Z,17.64
2022-12-31T19:00:21.709Z,18.38
2022-12-31T19:02:49.332Z,17.18
2022-12-31T19:05:21.125Z,17.62
2022-12-31T19:07:48.702Z,17.76
2022-12-31T19:10:16.802Z,17.73
2022-12-31T19:12:44.803Z,17.02
2022-12-31T19:15:16.694Z,16.94
2022-12-31T19:17:45.621Z,18.10
2022-12-31T19:20:13.178Z,17.19
2022-12-31T19:22:40.742Z,16.62
2022-12-31T19:25:09.073Z,16.63
2022-12-31T19:27:36.725Z,16.59
2022-12-31T19:30:04.468Z,17.77
2022-12-31T19:32:32.020Z,18.68
2022-12-31T19:35:00.907Z,18.95
2022-12-31T19:37:28.497Z,18.86
2022-12-31T19:39:56.019Z,18.40
2022-12-31T19:42:23.560Z,19.00
2022-12-31T19:44:51.099Z,18.45
2022-12-31T19:47:18.658Z,18.24
2022-12-31T19:49:46.311Z,18.53
2022-12-31T19:52:15.252Z,18.32
2022-12-31T19:54:42.850Z,18.10
2022-12-31T19:57:10.429Z,18.19
2022-12-31T19:59:38.014Z,18.20
2022-12-31T20:02:05.754Z,18.40
2022-12-31T20:04:33.396Z,18.21
2022-12-31T20:07:00.998Z,18.44
2022-12-31T20:09:29.922Z,18.61
2022-12-31T20:11:57.510Z,18.61
2022-12-31T20:14:25.132Z,18.63
2022-12-31T20:16:53.373Z,18.49
2022-12-31T20:19:20.977Z,18.53
2022-12-31T20:21:48.585Z,18.56
2022-12-31T20:24:16.184Z,18.41
2022-12-31T20:26:45.118Z,18.26
2022-12-31T20:29:12.749Z,18.26
2022-12-31T20:31:40.270Z,18.16
2022-12-31T20:34:07.994Z,16.73
2022-12-31T20:36:35.528Z,16.56
2022-12-31T20:39:03.113Z,16.59
2022-12-31T20:41:32.124Z,16.54
2022-12-31T20:44:01.126Z,16.56
2022-12-31T20:46:29.626Z,16.72
2022-12-31T20:48:57.955Z,16.85
2022-12-31T20:51:25.868Z,16.88
2022-12-31T20:53:55.064Z,16.78
2022-12-31T20:56:22.889Z,16.83
2022-12-31T20:58:50.480Z,16.82
2022-12-31T21:01:19.593Z,16.68
2022-12-31T21:04:04.720Z,16.82
2022-12-31T21:06:33.517Z,16.81
2022-12-31T21:09:01.516Z,16.71
2022-12-31T21:11:47.020Z,16.67
2022-12-31T21:14:14.637Z,18.22
2022-12-31T21:16:43.623Z,17.36
2022-12-31T21:19:11.204Z,16.69
2022-12-31T21:21:38.828Z,16.61
2022-12-31T21:24:06.737Z,16.58
2022-12-31T21:26:37.095Z,16.77
2022-12-31T21:29:04.669Z,16.84
2022-12-31T21:31:32.378Z,16.75
2022-12-31T21:34:01.533Z,17.22
2022-12-31T21:36:29.131Z,17.34
2022-12-31T21:38:57.042Z,17.37
2022-12-31T21:41:42.270Z,17.21
2022-12-31T21:44:10.058Z,17.27
2022-12-31T21:46:37.678Z,17.16
2022-12-31T21:49:06.793Z,16.84
2022-12-31T21:51:54.810Z,17.37
2022-12-31T21:54:36.356Z,16.87
2022-12-31T21:57:04.765Z,17.58
2022-12-31T22:00:09.108Z,18.40
2022-12-31T22:02:59.120Z,18.36
2022-12-31T22:05:28.873Z,18.27
2022-12-31T22:07:56.443Z,18.52
2022-12-31T22:10:24.104Z,18.54
2022-12-31T22:12:51.849Z,18.02
2022-12-31T22:15:20.111Z,18.19
2022-12-31T22:17:47.827Z,17.00
2022-12-31T22:20:30.858Z,17.06
2022-12-31T22:22:59.894Z,16.80
2022-12-31T22:25:27.644Z,16.86
2022-12-31T22:30:42.816Z,17.09
2022-12-31T22:33:10.367Z,17.03
2022-12-31T22:35:38.097Z,17.07
2022-12-31T22:38:11.859Z,17.16
2022-12-31T22:40:40.034Z,17.09
2022-12-31T22:43:07.584Z,17.08
2022-12-31T22:45:35.264Z,17.47
2022-12-31T22:48:02.929Z,17.49
2022-12-31T22:50:30.520Z,17.07
2022-12-31T22:52:58.143Z,17.00
2022-12-31T22:55:27.111Z,17.08
2022-12-31T22:57:54.784Z,17.17
2022-12-31T23:00:22.418Z,17.00
2022-12-31T23:02:50.073Z,17.14
2022-12-31T23:05:17.881Z,17.13
2022-12-31T23:07:45.507Z,17.37
2022-12-31T23:10:30.776Z,17.57
2022-12-31T23:13:21.078Z,17.30
2022-12-31T23:16:06.165Z,17.31
2022-12-31T23:18:51.126Z,18.53
2022-12-31T23:21:36.392Z,18.77
2022-12-31T23:24:13.058Z,18.06
2022-12-31T23:26:45.845Z,17.59
2022-12-31T23:29:14.842Z,18.52
2022-12-31T23:31:42.538Z,18.03
2022-12-31T23:34:10.445Z,17.50
2022-12-31T23:36:38.089Z,17.50
2022-12-31T23:39:05.741Z,17.33
2022-12-31T23:41:33.363Z,17.30
2022-12-31T23:44:01.075Z,17.35
2022-12-31T23:46:30.094Z,17.21
2022-12-31T23:48:57.754Z,17.73
2022-12-31T23:51:26.541Z,17.84
2022-12-31T23:53:54.155Z,17.70
2022-12-31T23:56:24.030Z,17.74
2022-12-31T23:58:54.403Z,17.90
